createdAt,value
2017-05-04T00:01:08.869Z,0
2017-05-04T00:02:19.211Z,0
2017-05-04T00:03:29.551Z,0
2017-05-04T00:04:39.888Z,0
2017-05-04T00:05:49.919Z,0
2017-05-04T00:06:59.627Z,0
2017-05-04T00:08:09.997Z,0
2017-05-04T00:09:20.321Z,0
2017-05-04T00:10:30.351Z,0
2017-05-04T00:11:40.714Z,0
2017-05-04T00:12:50.750Z,0
2017-05-04T00:14:01.098Z,0
2017-05-04T00:15:11.114Z,0
2017-05-04T00:16:21.141Z,0
2017-05-04T00:17:30.870Z,0
2017-05-04T00:18:41.211Z,0
2017-05-04T00:19:51.556Z,0
2017-05-04T00:21:01.280Z,0
2017-05-04T00:22:10.995Z,0
2017-05-04T00:23:21.340Z,0
2017-05-04T00:24:31.709Z,0
2017-05-04T00:25:42.068Z,0
2017-05-04T00:26:52.097Z,0
2017-05-04T00:28:02.438Z,0
2017-05-04T00:29:12.795Z,0
2017-05-04T00:30:22.524Z,0
2017-05-04T00:31:32.871Z,0
2017-05-04T00:32:43.211Z,0
2017-05-04T00:33:53.549Z,0
2017-05-04T00:35:03.898Z,0
2017-05-04T00:36:13.924Z,0
2017-05-04T00:37:24.278Z,0
2017-05-04T00:38:34.330Z,0
2017-05-04T00:39:44.687Z,0
2017-05-04T00:40:55.018Z,0
2017-05-04T00:42:05.365Z,0
2017-05-04T00:43:15.740Z,0
2017-05-04T00:44:26.086Z,0
2017-05-04T00:45:36.118Z,0
2017-05-04T00:46:46.454Z,0
2017-05-04T00:47:56.819Z,0
2017-05-04T00:49:07.164Z,0
2017-05-04T00:50:17.507Z,0
2017-05-04T00:51:27.858Z,0
2017-05-04T00:52:38.203Z,0
2017-05-04T00:53:48.560Z,0
2017-05-04T00:54:58.903Z,0
2017-05-04T00:56:09.235Z,0
2017-05-04T00:57:19.260Z,0
2017-05-04T00:58:29.288Z,0
2017-05-04T00:59:39.323Z,0
2017-05-04T01:00:49.653Z,0
2017-05-04T01:01:59.993Z,0
2017-05-04T01:03:10.350Z,0
2017-05-04T01:04:20.386Z,0
2017-05-04T01:05:30.748Z,0
2017-05-04T01:06:40.773Z,0
2017-05-04T01:07:51.123Z,0
2017-05-04T01:09:01.495Z,0
2017-05-04T01:10:11.851Z,0
2017-05-04T01:11:21.888Z,0
2017-05-04T01:12:32.238Z,0
2017-05-04T01:13:42.577Z,0
2017-05-04T01:14:52.915Z,0
2017-05-04T01:16:03.247Z,0
2017-05-04T01:17:13.278Z,0
2017-05-04T01:18:23.312Z,0
2017-05-04T01:19:33.664Z,0
2017-05-04T01:20:44.006Z,0
2017-05-04T01:21:53.726Z,0
2017-05-04T01:23:03.799Z,0
2017-05-04T01:24:13.831Z,0
2017-05-04T01:25:24.218Z,0
2017-05-04T01:26:34.568Z,0
2017-05-04T01:27:44.595Z,0
2017-05-04T01:28:55.001Z,0
2017-05-04T01:30:05.026Z,0
2017-05-04T01:31:15.070Z,0
2017-05-04T01:32:25.450Z,0
2017-05-04T01:33:35.475Z,0
2017-05-04T01:34:45.811Z,0
2017-05-04T01:35:56.153Z,0
2017-05-04T01:37:06.225Z,0
2017-05-04T01:38:16.277Z,0
2017-05-04T01:39:26.609Z,0
2017-05-04T01:40:36.953Z,0
2017-05-04T01:41:47.313Z,0
2017-05-04T01:42:57.663Z,0
2017-05-04T01:44:07.998Z,0
2017-05-04T01:45:18.331Z,0
2017-05-04T01:46:28.675Z,0
2017-05-04T01:47:39.037Z,0
2017-05-04T01:48:49.383Z,0
2017-05-04T01:49:59.466Z,0
2017-05-04T01:51:09.185Z,0
2017-05-04T01:52:19.205Z,0
2017-05-04T01:53:29.227Z,0
2017-05-04T01:54:39.550Z,0
2017-05-04T01:55:49.879Z,0
2017-05-04T01:56:59.905Z,0
2017-05-04T01:58:10.271Z,0
2017-05-04T01:59:20.596Z,0
2017-05-04T02:00:30.939Z,0
2017-05-04T02:01:41.326Z,0
2017-05-04T02:02:51.669Z,0
2017-05-04T02:04:02.013Z,0
2017-05-04T02:05:12.368Z,0
2017-05-04T02:06:22.702Z,0
2017-05-04T02:07:32.721Z,0
2017-05-04T02:08:43.066Z,0
2017-05-04T02:09:53.437Z,0
2017-05-04T02:11:03.789Z,0
2017-05-04T02:12:14.168Z,0
2017-05-04T02:13:24.597Z,0
2017-05-04T02:14:34.627Z,0
2017-05-04T02:15:44.670Z,0
2017-05-04T02:16:55.023Z,0
2017-05-04T02:18:05.064Z,0
2017-05-04T02:19:15.411Z,0
2017-05-04T02:20:25.751Z,0
2017-05-04T02:21:36.095Z,0
2017-05-04T02:22:46.428Z,0
2017-05-04T02:23:56.779Z,0
2017-05-04T02:25:07.154Z,0
2017-05-04T02:26:17.181Z,0
2017-05-04T02:27:26.936Z,0
2017-05-04T02:28:36.656Z,0
2017-05-04T02:29:46.991Z,0
2017-05-04T02:30:57.419Z,0
2017-05-04T02:32:07.455Z,0
2017-05-04T02:33:17.175Z,0
2017-05-04T02:34:27.194Z,0
2017-05-04T02:35:37.530Z,0
2017-05-04T02:36:47.877Z,0
2017-05-04T02:37:58.208Z,0
2017-05-04T02:39:08.562Z,0
2017-05-04T02:40:18.589Z,0
2017-05-04T02:41:28.921Z,0
2017-05-04T02:42:39.275Z,0
2017-05-04T02:43:49.647Z,0
2017-05-04T02:44:59.976Z,0
2017-05-04T02:46:10.016Z,0
2017-05-04T02:47:20.347Z,0
2017-05-04T02:48:30.096Z,0
2017-05-04T02:49:40.450Z,0
2017-05-04T02:50:50.488Z,0
2017-05-04T02:52:00.853Z,0
2017-05-04T02:53:11.207Z,0
2017-05-04T02:54:21.547Z,0
2017-05-04T02:55:31.895Z,0
2017-05-04T02:56:42.242Z,0
2017-05-04T02:57:52.273Z,0
2017-05-04T02:59:02.305Z,0
2017-05-04T03:00:12.644Z,0
2017-05-04T03:01:22.677Z,0
2017-05-04T03:33:08.639Z,0
2017-05-04T03:34:18.982Z,0
2017-05-04T03:35:29.324Z,0
2017-05-04T03:36:39.059Z,0
2017-05-04T03:37:49.401Z,0
2017-05-04T03:38:59.773Z,0
2017-05-04T03:40:10.111Z,0
2017-05-04T03:41:20.451Z,0
2017-05-04T03:42:30.480Z,0
2017-05-04T03:43:40.801Z,0
2017-05-04T03:44:50.817Z,0
2017-05-04T03:46:00.838Z,5
2017-05-04T03:47:10.877Z,5
2017-05-04T03:48:21.214Z,5
2017-05-04T03:49:31.256Z,5
2017-05-04T03:50:41.346Z,5
2017-05-04T03:51:51.699Z,5
2017-05-04T03:53:02.063Z,5
2017-05-04T03:54:12.404Z,5
2017-05-04T03:55:22.427Z,5
2017-05-04T03:56:32.768Z,5
2017-05-04T03:57:43.107Z,5
2017-05-04T03:58:53.473Z,5
2017-05-04T04:00:03.824Z,10
2017-05-04T04:01:13.861Z,10
2017-05-04T04:02:24.219Z,10
2017-05-04T04:03:34.244Z,10
2017-05-04T04:04:44.581Z,10
2017-05-04T04:05:54.927Z,10
2017-05-04T04:07:04.954Z,10
2017-05-04T04:08:15.296Z,10
2017-05-04T04:09:25.633Z,10
2017-05-04T04:10:35.983Z,15
2017-05-04T04:11:46.016Z,15
2017-05-04T04:12:56.354Z,15
2017-05-04T04:14:06.399Z,15
2017-05-04T04:15:16.749Z,15
2017-05-04T04:16:27.342Z,15
2017-05-04T04:17:37.686Z,15
2017-05-04T04:18:47.451Z,15
2017-05-04T04:19:57.800Z,15
2017-05-04T04:21:07.845Z,15
2017-05-04T04:22:18.181Z,15
2017-05-04T04:23:28.551Z,15
2017-05-04T04:24:38.590Z,20
2017-05-04T04:25:48.634Z,20
2017-05-04T04:26:58.985Z,20
2017-05-04T04:28:09.334Z,20
2017-05-04T04:29:19.693Z,20
2017-05-04T04:30:29.411Z,20
2017-05-04T04:31:39.463Z,25
2017-05-04T04:32:49.803Z,25
2017-05-04T04:34:00.143Z,25
2017-05-04T04:35:10.479Z,25
2017-05-04T04:36:20.828Z,25
2017-05-04T04:37:30.846Z,25
2017-05-04T04:38:40.884Z,30
2017-05-04T04:39:51.233Z,25
2017-05-04T04:41:01.575Z,25
2017-05-04T04:42:11.611Z,30
2017-05-04T04:43:22.034Z,30
2017-05-04T04:44:32.406Z,30
2017-05-04T04:45:42.823Z,30
2017-05-04T04:46:53.208Z,30
2017-05-04T04:48:03.266Z,30
2017-05-04T04:49:13.668Z,30
2017-05-04T04:50:23.704Z,30
2017-05-04T04:51:34.055Z,30
2017-05-04T04:52:44.427Z,35
2017-05-04T04:53:54.784Z,35
2017-05-04T04:55:05.171Z,35
2017-05-04T04:56:15.528Z,40
2017-05-04T04:57:25.877Z,35
2017-05-04T04:58:36.507Z,35
2017-05-04T04:59:46.560Z,35
2017-05-04T05:00:56.896Z,35
2017-05-04T05:02:07.225Z,40
2017-05-04T05:03:17.592Z,40
2017-05-04T05:04:27.943Z,40
2017-05-04T05:05:37.976Z,40
2017-05-04T05:06:48.331Z,40
2017-05-04T05:07:58.689Z,40
2017-05-04T05:09:08.435Z,40
2017-05-04T05:10:18.767Z,45
2017-05-04T05:11:28.804Z,45
2017-05-04T05:12:39.160Z,50
2017-05-04T05:13:49.561Z,50
2017-05-04T05:14:59.917Z,45
2017-05-04T05:16:10.271Z,45
2017-05-04T05:17:20.609Z,45
2017-05-04T05:18:30.971Z,45
2017-05-04T05:19:41.338Z,45
2017-05-04T05:20:51.378Z,45
2017-05-04T05:22:01.467Z,45
2017-05-04T05:23:11.815Z,50
2017-05-04T05:24:22.163Z,50
2017-05-04T05:25:32.549Z,50
2017-05-04T05:26:42.572Z,50
2017-05-04T05:27:52.619Z,50
2017-05-04T05:29:02.681Z,55
2017-05-04T05:30:12.711Z,55
2017-05-04T05:31:23.042Z,55
2017-05-04T05:32:33.395Z,55
2017-05-04T05:33:43.746Z,60
2017-05-04T05:34:54.082Z,60
2017-05-04T05:36:04.431Z,60
2017-05-04T05:37:14.781Z,55
2017-05-04T05:38:25.129Z,55
2017-05-04T05:39:35.479Z,55
2017-05-04T05:40:45.845Z,55
2017-05-04T05:41:56.195Z,55
2017-05-04T05:43:06.545Z,60
2017-05-04T05:44:16.889Z,55
2017-05-04T05:45:26.935Z,60
2017-05-04T05:46:36.963Z,55
2017-05-04T05:47:47.012Z,55
2017-05-04T05:48:57.363Z,60
2017-05-04T05:50:07.706Z,60
2017-05-04T05:51:18.057Z,60
2017-05-04T05:52:28.085Z,60
2017-05-04T05:53:37.810Z,65
2017-05-04T05:54:48.162Z,70
2017-05-04T05:55:58.503Z,70
2017-05-04T05:57:08.546Z,70
2017-05-04T05:58:18.915Z,70
2017-05-04T05:59:28.952Z,70
2017-05-04T06:00:39.294Z,75
2017-05-04T06:01:49.648Z,75
2017-05-04T06:03:00.021Z,80
2017-05-04T06:04:10.362Z,80
2017-05-04T06:05:20.718Z,80
2017-05-04T06:06:31.071Z,80
2017-05-04T06:07:41.153Z,80
2017-05-04T06:08:51.506Z,80
2017-05-04T06:10:01.857Z,85
2017-05-04T06:11:12.221Z,80
2017-05-04T06:12:21.947Z,80
2017-05-04T06:13:32.278Z,80
2017-05-04T06:14:42.615Z,80
2017-05-04T06:15:52.658Z,85
2017-05-04T06:17:03.031Z,85
2017-05-04T06:18:13.062Z,80
2017-05-04T06:19:23.111Z,80
2017-05-04T06:20:33.145Z,75
2017-05-04T06:21:43.175Z,75
2017-05-04T06:22:53.518Z,70
2017-05-04T06:24:03.881Z,70
2017-05-04T06:25:13.594Z,70
2017-05-04T06:26:23.938Z,70
2017-05-04T06:27:34.291Z,70
2017-05-04T06:28:44.353Z,70
2017-05-04T06:29:54.694Z,75
2017-05-04T06:31:05.075Z,75
2017-05-04T06:32:15.428Z,75
2017-05-04T06:33:25.460Z,80
2017-05-04T06:34:35.816Z,80
2017-05-04T06:35:46.153Z,80
2017-05-04T06:36:56.509Z,80
2017-05-04T06:38:06.843Z,85
2017-05-04T06:39:16.889Z,85
2017-05-04T06:40:26.921Z,85
2017-05-04T06:41:37.274Z,85
2017-05-04T06:42:47.312Z,85
2017-05-04T06:43:57.338Z,85
2017-05-04T06:45:07.687Z,85
2017-05-04T06:46:17.411Z,85
2017-05-04T06:47:27.443Z,85
2017-05-04T06:48:37.779Z,80
2017-05-04T06:49:47.812Z,80
2017-05-04T06:50:58.164Z,75
2017-05-04T06:52:08.200Z,70
2017-05-04T06:53:18.538Z,70
2017-05-04T06:54:28.589Z,75
2017-05-04T06:55:38.968Z,75
2017-05-04T06:56:49.320Z,75
2017-05-04T06:57:59.364Z,80
2017-05-04T06:59:09.408Z,80
2017-05-04T07:00:19.450Z,110
2017-05-04T07:01:29.804Z,130
2017-05-04T07:02:40.152Z,150
2017-05-04T07:03:50.509Z,155
2017-05-04T07:05:00.865Z,155
2017-05-04T07:06:10.899Z,155
2017-05-04T07:07:21.229Z,160
2017-05-04T07:08:31.575Z,155
2017-05-04T07:09:41.918Z,155
2017-05-04T07:10:52.269Z,155
2017-05-04T07:12:01.977Z,155
2017-05-04T07:13:12.336Z,155
2017-05-04T07:14:22.682Z,145
2017-05-04T07:15:32.695Z,155
2017-05-04T07:16:43.048Z,165
2017-05-04T07:17:53.399Z,175
2017-05-04T07:19:03.851Z,190
2017-05-04T07:20:13.564Z,200
2017-05-04T07:21:23.923Z,190
2017-05-04T07:22:34.024Z,180
2017-05-04T07:23:43.740Z,170
2017-05-04T07:24:54.100Z,160
2017-05-04T07:26:04.454Z,160
2017-05-04T07:27:14.801Z,160
2017-05-04T07:28:24.832Z,150
2017-05-04T07:29:35.195Z,145
2017-05-04T07:30:44.916Z,155
2017-05-04T07:31:55.261Z,150
2017-05-04T07:33:05.602Z,155
2017-05-04T07:34:15.930Z,165
2017-05-04T07:35:25.990Z,165
2017-05-04T07:36:36.053Z,165
2017-05-04T07:37:46.405Z,165
2017-05-04T07:38:56.756Z,165
2017-05-04T07:40:07.106Z,165
2017-05-04T07:41:17.141Z,160
2017-05-04T07:42:27.501Z,155
2017-05-04T07:43:37.532Z,160
2017-05-04T07:44:47.868Z,160
2017-05-04T07:45:58.214Z,160
2017-05-04T07:47:08.279Z,155
2017-05-04T07:48:18.318Z,150
2017-05-04T07:49:28.651Z,145
2017-05-04T07:50:39.001Z,145
2017-05-04T07:51:49.363Z,145
2017-05-04T07:52:59.718Z,145
2017-05-04T07:54:09.760Z,135
2017-05-04T07:55:20.089Z,130
2017-05-04T07:56:30.436Z,135
2017-05-04T07:57:40.463Z,135
2017-05-04T07:58:50.510Z,140
2017-05-04T08:00:00.557Z,145
2017-05-04T08:01:10.282Z,160
2017-05-04T08:02:20.060Z,175
2017-05-04T08:03:30.446Z,190
2017-05-04T08:04:40.802Z,200
2017-05-04T08:05:50.528Z,205
2017-05-04T08:07:00.878Z,215
2017-05-04T08:08:11.270Z,200
2017-05-04T08:09:21.619Z,195
2017-05-04T08:10:31.961Z,190
2017-05-04T08:11:42.548Z,185
2017-05-04T08:12:52.585Z,185
2017-05-04T08:14:02.627Z,180
2017-05-04T08:15:12.952Z,180
2017-05-04T08:16:22.986Z,180
2017-05-04T08:17:33.324Z,180
2017-05-04T08:18:43.672Z,185
2017-05-04T08:19:54.036Z,190
2017-05-04T08:21:04.386Z,205
2017-05-04T08:22:14.764Z,205
2017-05-04T08:23:25.118Z,210
2017-05-04T08:24:35.471Z,215
2017-05-04T08:25:45.824Z,230
2017-05-04T08:26:55.856Z,235
2017-05-04T08:28:05.878Z,235
2017-05-04T08:29:15.928Z,230
2017-05-04T08:30:25.968Z,225
2017-05-04T08:31:36.306Z,220
2017-05-04T08:32:46.656Z,230
2017-05-04T08:33:57.018Z,235
2017-05-04T08:35:07.372Z,235
2017-05-04T08:36:17.724Z,240
2017-05-04T08:37:28.074Z,250
2017-05-04T08:38:38.413Z,255
2017-05-04T08:39:48.766Z,270
2017-05-04T08:40:59.116Z,280
2017-05-04T08:42:09.445Z,300
2017-05-04T08:43:19.171Z,310
2017-05-04T08:44:29.518Z,315
2017-05-04T08:45:39.545Z,310
2017-05-04T08:46:49.907Z,295
2017-05-04T08:48:00.267Z,280
2017-05-04T08:49:10.615Z,270
2017-05-04T08:50:20.652Z,255
2017-05-04T08:51:31.002Z,245
2017-05-04T08:52:41.056Z,240
2017-05-04T08:53:51.082Z,240
2017-05-04T08:55:01.436Z,245
2017-05-04T08:56:11.490Z,260
2017-05-04T08:57:21.870Z,260
2017-05-04T08:58:32.255Z,260
2017-05-04T08:59:42.643Z,250
2017-05-04T09:00:52.674Z,240
2017-05-04T09:02:03.042Z,230
2017-05-04T09:03:13.393Z,215
2017-05-04T09:04:23.776Z,210
2017-05-04T09:05:34.117Z,215
2017-05-04T09:06:44.470Z,215
2017-05-04T09:07:54.819Z,215
2017-05-04T09:09:05.172Z,225
2017-05-04T09:10:15.572Z,240
2017-05-04T09:11:25.932Z,240
2017-05-04T09:12:36.298Z,245
2017-05-04T09:13:46.344Z,240
2017-05-04T09:14:56.700Z,210
2017-05-04T09:16:06.762Z,195
2017-05-04T09:17:17.097Z,210
2017-05-04T09:18:27.453Z,200
2017-05-04T09:19:37.508Z,180
2017-05-04T09:20:47.561Z,175
2017-05-04T09:21:57.932Z,195
2017-05-04T09:23:08.267Z,190
2017-05-04T09:24:18.621Z,185
2017-05-04T09:25:28.966Z,175
2017-05-04T09:26:39.009Z,170
2017-05-04T09:27:49.357Z,165
2017-05-04T09:28:59.713Z,175
2017-05-04T09:30:10.061Z,180
2017-05-04T09:31:20.415Z,205
2017-05-04T09:32:30.443Z,235
2017-05-04T09:33:40.786Z,245
2017-05-04T09:34:51.136Z,255
2017-05-04T09:36:01.504Z,260
2017-05-04T09:37:11.564Z,255
2017-05-04T09:38:21.938Z,250
2017-05-04T09:39:31.694Z,240
2017-05-04T09:40:41.711Z,240
2017-05-04T09:41:52.096Z,240
2017-05-04T09:43:02.452Z,240
2017-05-04T09:44:12.500Z,245
2017-05-04T09:45:22.556Z,265
2017-05-04T09:46:32.898Z,280
2017-05-04T09:47:43.253Z,295
2017-05-04T09:48:53.618Z,310
2017-05-04T09:50:03.681Z,310
2017-05-04T09:51:14.054Z,310
2017-05-04T09:52:24.407Z,310
2017-05-04T09:53:34.763Z,300
2017-05-04T09:54:44.852Z,285
2017-05-04T09:55:55.218Z,265
2017-05-04T09:57:05.613Z,260
2017-05-04T09:58:15.977Z,250
2017-05-04T09:59:26.331Z,245
2017-05-04T10:00:36.720Z,245
2017-05-04T10:01:46.752Z,240
2017-05-04T10:02:56.838Z,265
2017-05-04T10:04:06.866Z,275
2017-05-04T10:05:16.893Z,285
2017-05-04T10:06:27.290Z,295
2017-05-04T10:07:37.644Z,310
2017-05-04T10:08:48.013Z,320
2017-05-04T10:09:58.417Z,325
2017-05-04T10:11:08.453Z,315
2017-05-04T10:12:18.823Z,310
2017-05-04T10:13:29.194Z,300
2017-05-04T10:14:39.550Z,295
2017-05-04T10:15:49.951Z,300
2017-05-04T10:17:00.326Z,305
2017-05-04T10:18:10.676Z,300
2017-05-04T10:19:20.747Z,300
2017-05-04T10:20:30.494Z,290
2017-05-04T10:21:40.527Z,290
2017-05-04T10:22:50.878Z,295
2017-05-04T10:24:01.244Z,290
2017-05-04T10:25:11.600Z,295
2017-05-04T10:26:21.957Z,285
2017-05-04T10:27:32.319Z,285
2017-05-04T10:28:42.368Z,285
2017-05-04T10:29:52.416Z,290
2017-05-04T10:31:02.760Z,290
2017-05-04T10:32:13.118Z,285
2017-05-04T10:33:23.566Z,285
2017-05-04T10:34:33.932Z,260
2017-05-04T10:35:44.314Z,235
2017-05-04T10:36:54.677Z,220
2017-05-04T10:38:05.037Z,215
2017-05-04T10:39:15.383Z,220
2017-05-04T10:40:25.422Z,230
2017-05-04T10:41:35.460Z,240
2017-05-04T10:42:45.798Z,250
2017-05-04T10:43:56.152Z,255
2017-05-04T10:45:06.500Z,250
2017-05-04T10:46:16.908Z,235
2017-05-04T10:47:27.268Z,210
2017-05-04T10:48:37.637Z,195
2017-05-04T10:49:47.999Z,200
2017-05-04T10:50:58.034Z,215
2017-05-04T10:52:08.064Z,225
2017-05-04T10:53:18.416Z,205
2017-05-04T10:54:28.788Z,205
2017-05-04T10:55:39.140Z,215
2017-05-04T10:56:49.504Z,235
2017-05-04T10:57:59.854Z,270
2017-05-04T10:59:09.880Z,280
2017-05-04T11:00:20.246Z,290
2017-05-04T11:01:30.594Z,280
2017-05-04T11:02:41.032Z,280
2017-05-04T11:03:51.081Z,285
2017-05-04T11:05:01.463Z,285
2017-05-04T11:06:11.507Z,275
2017-05-04T11:07:21.901Z,270
2017-05-04T11:08:32.046Z,275
2017-05-04T11:09:42.409Z,270
2017-05-04T11:10:52.759Z,260
2017-05-04T11:12:03.109Z,265
2017-05-04T11:13:13.148Z,245
2017-05-04T11:14:23.500Z,205
2017-05-04T11:15:33.843Z,180
2017-05-04T11:16:44.195Z,170
2017-05-04T11:17:54.539Z,185
2017-05-04T11:19:04.902Z,200
2017-05-04T11:20:15.335Z,205
2017-05-04T11:21:25.434Z,195
2017-05-04T11:22:35.807Z,185
2017-05-04T11:23:46.163Z,170
2017-05-04T11:24:56.538Z,160
2017-05-04T11:26:06.899Z,150
2017-05-04T11:27:17.272Z,145
2017-05-04T11:28:27.637Z,155
2017-05-04T11:29:38.013Z,190
2017-05-04T11:30:47.767Z,225
2017-05-04T11:31:58.139Z,250
2017-05-04T11:33:08.509Z,280
2017-05-04T11:34:18.582Z,290
2017-05-04T11:35:28.641Z,285
2017-05-04T11:36:38.672Z,280
2017-05-04T11:37:49.024Z,280
2017-05-04T11:38:59.397Z,275
2017-05-04T11:40:09.453Z,275
2017-05-04T11:41:19.523Z,275
2017-05-04T11:42:29.885Z,275
2017-05-04T11:43:39.939Z,265
2017-05-04T11:44:50.325Z,245
2017-05-04T11:46:00.389Z,220
2017-05-04T11:47:10.722Z,205
2017-05-04T11:48:20.792Z,195
2017-05-04T11:49:31.196Z,200
2017-05-04T11:50:41.232Z,225
2017-05-04T11:51:51.611Z,245
2017-05-04T11:53:01.704Z,245
2017-05-04T11:54:12.070Z,235
2017-05-04T11:55:22.124Z,215
2017-05-04T11:56:32.185Z,200
2017-05-04T11:57:42.584Z,180
2017-05-04T11:58:52.694Z,160
2017-05-04T12:00:02.744Z,140
2017-05-04T12:01:13.115Z,125
2017-05-04T12:02:23.477Z,110
2017-05-04T12:03:33.826Z,100
2017-05-04T12:04:44.177Z,100
2017-05-04T12:05:54.222Z,105
2017-05-04T12:07:04.650Z,115
2017-05-04T12:08:14.690Z,140
2017-05-04T12:09:25.039Z,180
2017-05-04T12:10:35.386Z,210
2017-05-04T12:11:45.743Z,235
2017-05-04T12:12:55.788Z,240
2017-05-04T12:14:06.130Z,245
2017-05-04T12:15:16.486Z,240
2017-05-04T12:16:26.821Z,235
2017-05-04T12:17:37.181Z,235
2017-05-04T12:18:47.527Z,245
2017-05-04T12:19:57.590Z,270
2017-05-04T12:21:07.655Z,290
2017-05-04T12:22:18.046Z,295
2017-05-04T12:23:28.413Z,310
2017-05-04T12:24:38.775Z,325
2017-05-04T12:25:49.132Z,330
2017-05-04T12:26:59.491Z,340
2017-05-04T12:28:09.848Z,325
2017-05-04T12:29:20.227Z,320
2017-05-04T12:30:30.584Z,325
2017-05-04T12:31:40.942Z,315
2017-05-04T12:32:51.323Z,310
2017-05-04T12:34:01.366Z,305
2017-05-04T12:35:11.418Z,300
2017-05-04T12:36:21.769Z,295
2017-05-04T12:37:32.125Z,290
2017-05-04T12:38:42.507Z,285
2017-05-04T12:39:52.860Z,285
2017-05-04T12:41:02.910Z,290
2017-05-04T12:42:13.276Z,290
2017-05-04T12:43:23.303Z,285
2017-05-04T12:44:33.375Z,275
2017-05-04T12:45:43.725Z,255
2017-05-04T12:46:54.088Z,245
2017-05-04T12:48:04.431Z,250
2017-05-04T12:49:14.788Z,255
2017-05-04T12:50:24.825Z,270
2017-05-04T12:51:34.869Z,285
2017-05-04T12:52:44.609Z,295
2017-05-04T12:53:54.383Z,310
2017-05-04T12:55:04.750Z,310
2017-05-04T12:56:15.087Z,305
2017-05-04T12:57:25.467Z,295
2017-05-04T12:58:35.818Z,270
2017-05-04T12:59:46.192Z,240
2017-05-04T13:00:56.539Z,225
2017-05-04T13:02:06.268Z,210
2017-05-04T13:03:16.622Z,190
2017-05-04T13:04:26.982Z,180
2017-05-04T13:05:37.336Z,175
2017-05-04T13:06:47.683Z,160
2017-05-04T13:07:57.731Z,150
2017-05-04T13:09:08.093Z,150
2017-05-04T13:10:18.475Z,155
2017-05-04T13:11:28.841Z,170
2017-05-04T13:12:39.194Z,190
2017-05-04T13:13:49.561Z,200
2017-05-04T13:14:59.905Z,215
2017-05-04T13:16:09.957Z,225
2017-05-04T13:17:20.319Z,230
2017-05-04T13:18:30.684Z,230
2017-05-04T13:19:41.038Z,235
2017-05-04T13:20:50.761Z,235
2017-05-04T13:22:01.099Z,245
2017-05-04T13:23:11.443Z,235
2017-05-04T13:24:21.803Z,245
2017-05-04T13:25:32.170Z,255
2017-05-04T13:26:42.529Z,260
2017-05-04T13:27:52.889Z,260
2017-05-04T13:29:03.247Z,265
2017-05-04T13:30:13.287Z,265
2017-05-04T13:31:23.630Z,270
2017-05-04T13:32:33.664Z,275
2017-05-04T13:33:43.693Z,270
2017-05-04T13:34:54.100Z,270
2017-05-04T13:36:04.461Z,270
2017-05-04T13:37:14.821Z,275
2017-05-04T13:38:25.182Z,275
2017-05-04T13:39:35.570Z,275
2017-05-04T13:40:45.624Z,290
2017-05-04T13:41:56.029Z,305
2017-05-04T13:43:06.385Z,350
2017-05-04T13:44:16.735Z,385
2017-05-04T13:45:27.074Z,315
2017-05-04T13:46:37.443Z,300
2017-05-04T13:47:47.816Z,280
2017-05-04T13:48:58.176Z,275
2017-05-04T13:50:08.575Z,265
2017-05-04T13:51:18.948Z,255
2017-05-04T13:52:28.986Z,245
2017-05-04T13:53:39.043Z,245
2017-05-04T13:54:49.420Z,245
2017-05-04T13:55:59.777Z,270
2017-05-04T13:57:10.118Z,265
2017-05-04T13:58:20.158Z,265
2017-05-04T13:59:30.525Z,255
2017-05-04T14:00:40.879Z,285
2017-05-04T14:01:51.244Z,250
2017-05-04T14:03:01.591Z,235
2017-05-04T14:04:11.652Z,235
2017-05-04T14:05:22.008Z,235
2017-05-04T14:06:32.061Z,235
2017-05-04T14:07:42.452Z,225
2017-05-04T14:08:52.534Z,220
2017-05-04T14:10:02.908Z,220
2017-05-04T14:11:12.653Z,260
2017-05-04T14:12:23.006Z,250
2017-05-04T14:13:33.056Z,250
2017-05-04T14:14:43.093Z,250
2017-05-04T14:15:52.814Z,255
2017-05-04T14:17:03.160Z,285
2017-05-04T14:18:13.212Z,270
2017-05-04T14:19:23.568Z,270
2017-05-04T14:20:33.930Z,310
2017-05-04T14:21:44.290Z,270
2017-05-04T14:22:54.325Z,295
2017-05-04T14:24:04.691Z,270
2017-05-04T14:25:15.034Z,250
2017-05-04T14:26:25.375Z,225
2017-05-04T14:27:35.726Z,220
2017-05-04T14:28:46.075Z,210
2017-05-04T14:29:56.120Z,195
2017-05-04T14:31:06.468Z,170
2017-05-04T14:32:16.504Z,165
2017-05-04T14:33:26.861Z,170
2017-05-04T14:34:36.601Z,170
2017-05-04T14:35:46.952Z,195
2017-05-04T14:36:57.292Z,225
2017-05-04T14:38:07.324Z,230
2017-05-04T14:39:17.680Z,170
2017-05-04T14:40:27.707Z,155
2017-05-04T14:41:38.069Z,200
2017-05-04T14:42:48.413Z,195
2017-05-04T14:43:58.444Z,200
2017-05-04T14:45:08.881Z,195
2017-05-04T14:46:19.228Z,200
2017-05-04T14:47:29.578Z,195
2017-05-04T14:48:39.930Z,190
2017-05-04T14:49:50.289Z,195
2017-05-04T14:51:00.626Z,195
2017-05-04T14:52:10.969Z,195
2017-05-04T14:53:21.362Z,200
2017-05-04T14:54:31.431Z,200
2017-05-04T14:55:41.791Z,195
2017-05-04T14:56:52.136Z,200
2017-05-04T14:58:02.179Z,205
2017-05-04T14:59:12.243Z,205
2017-05-04T15:00:22.605Z,205
2017-05-04T15:01:32.966Z,205
2017-05-04T15:02:43.317Z,200
2017-05-04T15:03:53.654Z,200
2017-05-04T15:05:04.008Z,200
2017-05-04T15:06:14.057Z,200
2017-05-04T15:07:24.419Z,200
2017-05-04T15:08:34.784Z,200
2017-05-04T15:09:45.139Z,200
2017-05-04T15:10:55.485Z,205
2017-05-04T15:12:05.206Z,205
2017-05-04T15:13:15.559Z,205
2017-05-04T15:14:25.892Z,185
2017-05-04T15:15:36.249Z,180
2017-05-04T15:16:45.971Z,175
2017-05-04T15:17:56.324Z,145
2017-05-04T15:19:06.684Z,130
2017-05-04T15:20:17.050Z,175
2017-05-04T15:21:27.406Z,160
2017-05-04T15:22:37.437Z,185
2017-05-04T15:23:47.814Z,155
2017-05-04T15:24:58.160Z,175
2017-05-04T15:26:08.515Z,175
2017-05-04T15:27:18.851Z,165
2017-05-04T15:28:29.210Z,160
2017-05-04T15:29:39.559Z,155
2017-05-04T15:30:49.910Z,120
2017-05-04T15:32:00.273Z,115
2017-05-04T15:33:10.625Z,105
2017-05-04T15:34:20.379Z,105
2017-05-04T15:35:30.092Z,105
2017-05-04T15:36:40.442Z,100
2017-05-04T15:37:50.805Z,105
2017-05-04T15:39:01.148Z,110
2017-05-04T15:40:11.498Z,110
2017-05-04T15:41:21.547Z,120
2017-05-04T15:42:31.907Z,125
2017-05-04T15:43:42.253Z,130
2017-05-04T15:44:51.973Z,130
2017-05-04T15:46:02.009Z,130
2017-05-04T15:47:12.360Z,125
2017-05-04T15:48:22.739Z,120
2017-05-04T15:49:33.081Z,115
2017-05-04T15:50:43.118Z,110
2017-05-04T15:51:53.474Z,105
2017-05-04T15:53:03.816Z,95
2017-05-04T15:54:14.172Z,95
2017-05-04T15:55:24.509Z,85
2017-05-04T15:56:34.848Z,75
2017-05-04T15:57:44.895Z,70
2017-05-04T15:58:55.244Z,65
2017-05-04T16:00:05.279Z,60
2017-05-04T16:01:15.651Z,55
2017-05-04T16:02:25.378Z,55
2017-05-04T16:03:35.434Z,55
2017-05-04T16:04:45.181Z,55
2017-05-04T16:05:54.912Z,55
2017-05-04T16:07:05.278Z,50
2017-05-04T16:08:15.618Z,50
2017-05-04T16:09:25.973Z,50
2017-05-04T16:10:36.021Z,45
2017-05-04T16:11:46.370Z,45
2017-05-04T16:12:56.724Z,40
2017-05-04T16:14:07.078Z,35
2017-05-04T16:15:17.442Z,25
2017-05-04T16:16:27.799Z,15
2017-05-04T16:17:37.849Z,15
2017-05-04T16:18:47.877Z,15
2017-05-04T16:19:57.923Z,15
2017-05-04T16:21:08.277Z,15
2017-05-04T16:22:18.291Z,10
2017-05-04T16:23:28.016Z,10
2017-05-04T16:24:38.047Z,10
2017-05-04T16:25:48.394Z,10
2017-05-04T16:26:58.746Z,5
2017-05-04T16:28:09.097Z,5
2017-05-04T16:29:19.456Z,5
2017-05-04T16:30:29.490Z,5
2017-05-04T16:31:39.840Z,5
2017-05-04T16:32:50.193Z,5
2017-05-04T16:34:00.237Z,5
2017-05-04T16:35:10.600Z,5
2017-05-04T16:36:20.948Z,5
2017-05-04T16:37:30.978Z,5
2017-05-04T16:38:41.312Z,5
2017-05-04T16:39:51.349Z,5
2017-05-04T16:41:01.702Z,5
2017-05-04T16:42:11.770Z,5
2017-05-04T16:43:22.125Z,5
2017-05-04T16:44:31.879Z,5
2017-05-04T16:45:41.931Z,5
2017-05-04T16:46:52.295Z,5
2017-05-04T16:48:02.656Z,5
2017-05-04T16:49:12.675Z,5
2017-05-04T16:50:23.019Z,5
2017-05-04T16:51:33.379Z,5
2017-05-04T16:52:43.123Z,5
2017-05-04T16:53:53.488Z,5
2017-05-04T16:55:03.539Z,10
2017-05-04T16:56:13.891Z,10
2017-05-04T16:57:24.234Z,10
2017-05-04T16:58:34.625Z,10
2017-05-04T16:59:44.987Z,15
2017-05-04T17:00:55.348Z,15
2017-05-04T17:02:05.710Z,20